CYP11B LCLK-LLBG
Flight info
| Callsign | CYP11B |
|---|---|
| Flight time | N/A |
| Altitude | 23000 |
| Route | EMEDA DCT TUZIB L189 ZUKKO |
| Aircraft | BCS3/M-SBDE2E3GIRWXY/LB1 |
Departure
| Time | 2026-05-01 13:31 |
|---|---|
| Airport | Larnaca International Airport (LCLK) |
Arrival
| Time | N/A |
|---|---|
| Airport | Ben Gurion International Airport (LLBG) |
| Time | Latitude | Longitude | Altitude | Speed | Heading |
|---|---|---|---|---|---|
| 2026-05-01 13:18 | 34.86985 | 33.61096 | 21 ft | 0 kts | 225° |
| 2026-05-01 13:26 | 34.86992 | 33.61104 | 23 ft | 2 kts | 225° |
| 2026-05-01 13:27 | 34.87003 | 33.61118 | 22 ft | 2 kts | 225° |
| 2026-05-01 13:27 | 34.87019 | 33.61135 | 22 ft | 7 kts | 210° |
| 2026-05-01 13:27 | 34.87086 | 33.61126 | 21 ft | 0 kts | 134° |
| 2026-05-01 13:28 | 34.87008 | 33.61223 | 21 ft | 14 kts | 134° |
| 2026-05-01 13:28 | 34.86947 | 33.61298 | 23 ft | 11 kts | 134° |
| 2026-05-01 13:29 | 34.86997 | 33.61570 | 22 ft | 18 kts | 46° |
| 2026-05-01 13:29 | 34.87474 | 33.62156 | 23 ft | 117 kts | 45° |
| 2026-05-01 13:30 | 34.88282 | 33.63502 | 20 ft | 6 kts | 212° |
| 2026-05-01 13:31 | 34.88164 | 33.63360 | 22 ft | 55 kts | 224° |
| 2026-05-01 13:31 | 34.86057 | 33.60740 | 871 ft | 200 kts | 228° |
| 2026-05-01 13:32 | 34.83803 | 33.58044 | 1749 ft | 249 kts | 218° |
| 2026-05-01 13:33 | 34.78997 | 33.59318 | 1949 ft | 271 kts | 117° |
| 2026-05-01 13:33 | 34.79318 | 33.63312 | 1807 ft | 230 kts | 46° |
| 2026-05-01 13:34 | 34.81850 | 33.65009 | 1582 ft | 195 kts | 21° |
| 2026-05-01 13:34 | 34.84270 | 33.66100 | 1248 ft | 169 kts | 15° |
| 2026-05-01 13:35 | 34.86423 | 33.67191 | 1029 ft | 176 kts | 19° |
| 2026-05-01 13:35 | 34.87466 | 33.67479 | 959 ft | 139 kts | 360° |
| 2026-05-01 13:35 | 34.89243 | 33.66552 | 904 ft | 139 kts | 285° |
| 2026-05-01 13:36 | 34.89119 | 33.65492 | 711 ft | 122 kts | 247° |
| 2026-05-01 13:36 | 34.88835 | 33.64576 | 381 ft | 109 kts | 242° |
| 2026-05-01 13:36 | 34.87913 | 33.63068 | 28 ft | 102 kts | 225° |
| 2026-05-01 13:37 | 34.87706 | 33.62810 | 23 ft | 87 kts | 226° |